createdAt,value
2019-02-15T00:00:41.198Z,45.27
2019-02-15T00:03:10.743Z,47.11
2019-02-15T00:05:40.371Z,46.72
2019-02-15T00:08:10.019Z,46.67
2019-02-15T00:10:39.518Z,46.20
2019-02-15T00:13:13.644Z,47.10
2019-02-15T00:15:40.213Z,46.74
2019-02-15T00:18:27.115Z,46.67
2019-02-15T00:21:00.964Z,46.89
2019-02-15T00:23:30.520Z,46.46
2019-02-15T00:26:00.013Z,46.24
2019-02-15T00:28:29.569Z,46.41
2019-02-15T00:30:59.096Z,46.17
2019-02-15T00:33:28.588Z,45.65
2019-02-15T00:35:58.062Z,47.41
2019-02-15T00:38:27.520Z,47.65
2019-02-15T00:40:57.000Z,47.31
2019-02-15T00:43:26.482Z,47.97
2019-02-15T00:46:03.202Z,47.72
2019-02-15T00:48:32.665Z,48.63
2019-02-15T00:51:03.804Z,47.83
2019-02-15T00:53:37.886Z,48.54
2019-02-15T00:56:20.701Z,48.91
2019-02-15T00:58:49.963Z,48.83
2019-02-15T01:01:24.093Z,48.53
2019-02-15T01:03:57.936Z,49.28
2019-02-15T01:06:45.429Z,49.65
2019-02-15T01:09:22.615Z,49.59
2019-02-15T01:11:53.810Z,49.93
2019-02-15T01:14:23.280Z,50.42
2019-02-15T01:16:52.776Z,49.24
2019-02-15T01:19:23.934Z,48.65
2019-02-15T01:21:53.529Z,50.17
2019-02-15T01:24:23.040Z,49.68
2019-02-15T01:26:54.130Z,49.44
2019-02-15T01:29:33.744Z,50.80
2019-02-15T01:32:02.976Z,50.88
2019-02-15T01:34:46.139Z,49.58
2019-02-15T01:37:20.032Z,50.58
2019-02-15T01:40:04.253Z,50.34
2019-02-15T01:42:51.155Z,50.72
2019-02-15T01:45:24.917Z,49.99
2019-02-15T01:47:54.399Z,49.65
2019-02-15T01:50:23.844Z,50.60
2019-02-15T01:52:53.348Z,50.56
2019-02-15T01:55:22.827Z,50.05
2019-02-15T01:57:56.045Z,50.52
2019-02-15T02:00:27.252Z,51.81
2019-02-15T02:02:56.740Z,51.43
2019-02-15T02:05:26.218Z,51.46
2019-02-15T02:07:55.717Z,51.36
2019-02-15T02:10:25.207Z,52.08
2019-02-15T02:12:54.756Z,51.57
2019-02-15T02:15:24.261Z,51.63
2019-02-15T02:17:53.746Z,50.65
2019-02-15T02:20:23.223Z,51.54
2019-02-15T02:22:52.774Z,51.52
2019-02-15T02:25:22.270Z,51.52
2019-02-15T02:27:51.785Z,51.50
2019-02-15T02:30:21.285Z,50.73
2019-02-15T02:32:50.766Z,51.05
2019-02-15T02:35:20.235Z,50.97
2019-02-15T02:37:49.804Z,51.66
2019-02-15T02:40:19.245Z,50.91
2019-02-15T02:42:48.728Z,50.88
2019-02-15T02:45:18.256Z,50.72
2019-02-15T02:47:47.761Z,50.65
2019-02-15T02:50:17.196Z,50.68
2019-02-15T02:52:46.743Z,51.08
2019-02-15T02:55:16.180Z,51.32
2019-02-15T02:57:45.652Z,51.01
2019-02-15T03:00:15.195Z,50.88
2019-02-15T03:02:44.688Z,49.95
2019-02-15T03:05:33.536Z,50.75
2019-02-15T03:08:22.372Z,51.40
2019-02-15T03:11:11.263Z,50.88
2019-02-15T03:14:10.723Z,50.67
2019-02-15T03:16:50.688Z,50.24
2019-02-15T03:19:39.663Z,50.62
2019-02-15T03:22:28.491Z,50.50
2019-02-15T03:25:17.289Z,49.88
2019-02-15T03:28:06.105Z,50.49
2019-02-15T03:30:54.942Z,50.90
2019-02-15T03:33:43.764Z,50.48
2019-02-15T03:42:37.547Z,50.46
2019-02-15T03:45:26.735Z,50.94
2019-02-15T03:48:15.654Z,50.73
2019-02-15T03:51:04.558Z,50.85
2019-02-15T03:53:53.416Z,50.85
2019-02-15T03:59:41.714Z,50.87
2019-02-15T04:02:30.509Z,50.23
2019-02-15T04:05:19.342Z,50.58
2019-02-15T04:08:27.520Z,50.34
2019-02-15T04:11:16.351Z,50.47
2019-02-15T04:14:05.169Z,50.24
2019-02-15T04:16:54.060Z,50.35
2019-02-15T04:19:42.902Z,50.16
2019-02-15T04:22:31.690Z,50.15
2019-02-15T04:25:20.590Z,50.16
2019-02-15T04:28:09.483Z,50.83
2019-02-15T04:30:58.450Z,50.16
2019-02-15T04:33:47.241Z,50.50
2019-02-15T04:36:36.078Z,50.48
2019-02-15T04:39:24.934Z,50.44
2019-02-15T04:42:13.896Z,50.50
2019-02-15T04:45:02.739Z,50.40
2019-02-15T04:47:51.568Z,50.38
2019-02-15T04:51:01.385Z,50.42
2019-02-15T04:53:50.223Z,50.17
2019-02-15T04:56:39.069Z,50.38
2019-02-15T04:59:27.932Z,50.73
2019-02-15T05:02:16.870Z,50.56
2019-02-15T05:08:36.880Z,50.32
2019-02-15T05:11:25.797Z,50.21
2019-02-15T05:14:14.638Z,50.42
2019-02-15T05:17:03.584Z,50.05
2019-02-15T05:19:52.432Z,50.62
2019-02-15T05:22:41.250Z,50.53
2019-02-15T05:25:30.053Z,50.55
2019-02-15T05:28:39.858Z,50.90
2019-02-15T05:31:28.677Z,50.73
2019-02-15T05:34:17.506Z,50.70
2019-02-15T05:37:06.428Z,50.60
2019-02-15T05:39:55.253Z,50.85
2019-02-15T05:42:36.976Z,50.34
2019-02-15T05:45:25.867Z,50.80
2019-02-15T05:48:14.761Z,50.22
2019-02-15T05:51:03.608Z,50.89
2019-02-15T05:53:52.403Z,50.67
2019-02-15T05:56:41.244Z,50.91
2019-02-15T05:59:30.095Z,51.29
2019-02-15T06:02:18.919Z,50.41
2019-02-15T06:05:28.692Z,51.13
2019-02-15T06:08:17.568Z,51.60
2019-02-15T06:11:08.092Z,51.08
2019-02-15T06:13:56.927Z,51.06
2019-02-15T06:16:45.741Z,50.81
2019-02-15T06:19:34.573Z,51.36
2019-02-15T06:22:23.441Z,51.35
2019-02-15T06:25:12.283Z,51.09
2019-02-15T06:28:01.198Z,50.83
2019-02-15T06:30:49.992Z,50.86
2019-02-15T06:33:31.821Z,52.08
2019-02-15T06:36:20.611Z,50.67
2019-02-15T06:39:09.517Z,51.56
2019-02-15T06:41:58.427Z,50.74
2019-02-15T06:44:47.392Z,50.67
2019-02-15T06:47:36.339Z,51.32
2019-02-15T06:50:25.250Z,51.15
2019-02-15T06:53:14.185Z,51.90
2019-02-15T06:56:03.000Z,51.09
2019-02-15T07:05:06.584Z,50.84
2019-02-15T07:07:55.432Z,51.45
2019-02-15T07:10:44.372Z,51.20
2019-02-15T07:13:33.188Z,50.82
2019-02-15T07:16:22.016Z,51.15
2019-02-15T07:19:10.882Z,51.36
2019-02-15T07:21:59.971Z,51.41
2019-02-15T07:25:09.719Z,50.99
2019-02-15T07:27:58.613Z,51.00
2019-02-15T07:30:47.438Z,50.98
2019-02-15T07:33:36.290Z,51.01
2019-02-15T07:36:17.477Z,51.04
2019-02-15T07:39:06.524Z,50.74
2019-02-15T07:41:55.363Z,51.14
2019-02-15T07:44:44.248Z,50.75
2019-02-15T07:47:33.067Z,50.56
2019-02-15T07:50:21.566Z,50.70
2019-02-15T07:53:10.112Z,50.15
2019-02-15T07:55:58.977Z,50.29
2019-02-15T07:58:47.811Z,51.27
2019-02-15T08:01:36.720Z,50.15
2019-02-15T08:04:25.650Z,49.92
2019-02-15T08:07:14.518Z,50.21
2019-02-15T08:10:03.530Z,49.37
2019-02-15T08:12:52.366Z,49.83
2019-02-15T08:15:41.212Z,48.90
2019-02-15T08:18:30.068Z,48.26
2019-02-15T08:20:59.643Z,48.99
2019-02-15T08:23:29.170Z,48.74
2019-02-15T08:25:58.688Z,48.39
2019-02-15T08:28:28.178Z,47.43
2019-02-15T08:30:57.642Z,47.92
2019-02-15T08:33:27.150Z,48.89
2019-02-15T08:35:56.624Z,46.64
2019-02-15T08:38:27.505Z,47.99
2019-02-15T08:40:57.107Z,46.74
2019-02-15T08:43:26.578Z,46.55
2019-02-15T08:46:01.582Z,46.28
2019-02-15T08:48:27.386Z,46.09
2019-02-15T08:50:56.933Z,46.25
2019-02-15T08:53:26.443Z,45.51
2019-02-15T08:55:55.938Z,45.76
2019-02-15T08:58:25.436Z,45.48
2019-02-15T09:00:54.934Z,45.34
2019-02-15T09:03:27.467Z,44.74
2019-02-15T09:05:56.972Z,44.77
2019-02-15T09:08:26.453Z,44.93
2019-02-15T09:10:55.971Z,44.80
2019-02-15T09:13:25.465Z,45.10
2019-02-15T09:15:55.052Z,44.64
2019-02-15T09:18:24.570Z,43.74
2019-02-15T09:20:54.044Z,42.92
2019-02-15T09:23:23.552Z,43.48
2019-02-15T09:25:53.091Z,43.36
2019-02-15T09:28:26.761Z,43.26
2019-02-15T09:30:56.235Z,43.38
2019-02-15T09:33:25.738Z,43.51
2019-02-15T09:35:55.212Z,42.84
2019-02-15T09:38:24.726Z,42.32
2019-02-15T09:40:54.189Z,42.51
2019-02-15T09:43:23.703Z,42.31
2019-02-15T09:45:53.314Z,41.89
2019-02-15T09:48:22.821Z,42.22
2019-02-15T09:50:52.316Z,40.57
2019-02-15T09:53:21.787Z,40.78
2019-02-15T09:55:51.280Z,41.13
2019-02-15T09:58:20.767Z,40.85
2019-02-15T10:00:50.342Z,40.53
2019-02-15T10:03:19.805Z,41.21
2019-02-15T10:05:49.322Z,40.27
2019-02-15T10:08:18.815Z,39.51
2019-02-15T10:10:48.310Z,39.38
2019-02-15T10:13:17.811Z,40.32
2019-02-15T10:15:47.338Z,38.50
2019-02-15T10:18:16.786Z,39.13
2019-02-15T10:20:46.281Z,39.57
2019-02-15T10:23:15.795Z,39.07
2019-02-15T10:25:45.243Z,38.41
2019-02-15T10:28:14.725Z,37.81
2019-02-15T10:30:44.287Z,39.50
2019-02-15T10:33:13.847Z,39.52
2019-02-15T10:35:43.352Z,38.60
2019-02-15T10:38:12.836Z,37.56
2019-02-15T10:40:42.322Z,38.05
2019-02-15T10:43:11.905Z,38.50
2019-02-15T10:45:44.391Z,38.45
2019-02-15T10:48:13.859Z,38.53
2019-02-15T10:51:02.814Z,37.21
2019-02-15T10:53:32.263Z,37.89
2019-02-15T10:56:01.845Z,38.74
2019-02-15T10:58:31.333Z,37.70
2019-02-15T11:01:00.890Z,38.18
2019-02-15T11:03:30.378Z,38.80
2019-02-15T11:05:59.847Z,37.74
2019-02-15T11:08:29.425Z,37.14
2019-02-15T11:10:58.876Z,37.50
2019-02-15T11:13:28.379Z,37.70
2019-02-15T11:15:57.865Z,37.72
2019-02-15T11:18:27.445Z,38.31
2019-02-15T11:20:56.927Z,37.88
2019-02-15T11:23:26.398Z,37.20
2019-02-15T11:25:55.895Z,37.57
2019-02-15T11:28:26.246Z,36.83
2019-02-15T11:30:56.986Z,36.29
2019-02-15T11:33:26.423Z,37.17
2019-02-15T11:35:58.767Z,37.07
2019-02-15T11:38:28.259Z,37.04
2019-02-15T11:40:57.729Z,35.99
2019-02-15T11:43:27.217Z,36.50
2019-02-15T11:45:56.762Z,36.34
2019-02-15T11:48:45.649Z,35.85
2019-02-15T11:51:15.095Z,35.80
2019-02-15T11:53:46.135Z,36.93
2019-02-15T11:56:15.621Z,35.70
2019-02-15T11:58:45.164Z,36.99
2019-02-15T12:01:14.680Z,36.47
2019-02-15T12:04:03.525Z,36.94
2019-02-15T12:06:33.003Z,36.99
2019-02-15T12:09:02.552Z,35.27
2019-02-15T12:11:32.059Z,35.96
2019-02-15T12:14:01.555Z,35.76
2019-02-15T12:16:31.042Z,35.79
2019-02-15T12:19:00.574Z,35.67
2019-02-15T12:21:30.041Z,35.24
2019-02-15T12:24:02.533Z,35.76
2019-02-15T12:26:32.017Z,34.65
2019-02-15T12:29:01.581Z,35.21
2019-02-15T12:31:31.114Z,34.94
2019-02-15T12:34:00.579Z,35.40
2019-02-15T12:36:30.078Z,35.08
2019-02-15T12:38:59.547Z,34.73
2019-02-15T12:41:29.037Z,34.57
2019-02-15T12:44:00.072Z,34.20
2019-02-15T12:46:29.579Z,34.40
2019-02-15T12:48:59.057Z,35.19
2019-02-15T12:51:28.618Z,34.33
2019-02-15T12:53:58.158Z,35.74
2019-02-15T12:56:27.661Z,34.11
2019-02-15T12:58:57.127Z,33.47
2019-02-15T13:01:26.623Z,34.09
2019-02-15T13:03:56.093Z,34.14
2019-02-15T13:06:28.666Z,34.59
2019-02-15T13:08:56.881Z,32.85
2019-02-15T13:11:26.344Z,33.12
2019-02-15T13:13:55.820Z,32.83
2019-02-15T13:16:25.344Z,33.43
2019-02-15T13:18:54.810Z,34.18
2019-02-15T13:21:24.294Z,32.46
2019-02-15T13:23:53.780Z,32.67
2019-02-15T13:26:23.380Z,32.36
2019-02-15T13:28:52.975Z,31.89
2019-02-15T13:31:23.150Z,31.43
2019-02-15T13:33:52.806Z,31.13
2019-02-15T13:36:22.280Z,31.52
2019-02-15T13:38:51.761Z,31.30
2019-02-15T13:41:21.325Z,30.65
2019-02-15T13:43:50.802Z,32.15
2019-02-15T13:46:20.364Z,31.35
2019-02-15T13:48:49.863Z,30.71
2019-02-15T13:51:19.346Z,32.21
2019-02-15T13:53:48.843Z,32.74
2019-02-15T13:56:18.408Z,32.02
2019-02-15T13:58:47.887Z,31.15
2019-02-15T14:01:17.351Z,31.66
2019-02-15T14:03:47.223Z,30.87
2019-02-15T14:06:16.750Z,30.04
2019-02-15T14:08:46.264Z,30.76
2019-02-15T14:11:15.972Z,30.91
2019-02-15T14:13:45.529Z,31.08
2019-02-15T14:16:15.064Z,29.81
2019-02-15T14:18:44.527Z,31.05
2019-02-15T14:21:14.027Z,31.03
2019-02-15T14:23:43.516Z,30.99
2019-02-15T14:26:13.114Z,32.25
2019-02-15T14:28:42.597Z,31.36
2019-02-15T14:31:31.485Z,31.14
2019-02-15T14:34:20.265Z,29.82
2019-02-15T14:37:02.003Z,30.85
2019-02-15T14:39:50.835Z,31.33
2019-02-15T14:42:39.784Z,29.81
2019-02-15T14:45:28.700Z,30.39
2019-02-15T14:48:17.541Z,30.42
2019-02-15T14:50:47.128Z,30.51
2019-02-15T14:53:16.701Z,30.23
2019-02-15T14:55:48.853Z,30.43
2019-02-15T14:58:17.484Z,30.04
2019-02-15T15:00:47.067Z,30.13
2019-02-15T15:03:18.228Z,29.68
2019-02-15T15:05:47.704Z,30.61
2019-02-15T15:08:17.276Z,31.19
2019-02-15T15:10:46.782Z,30.86
2019-02-15T15:13:16.292Z,31.25
2019-02-15T15:15:45.776Z,30.65
2019-02-15T15:18:15.315Z,30.79
2019-02-15T15:20:44.836Z,30.98
2019-02-15T15:23:14.382Z,31.00
2019-02-15T15:26:11.551Z,30.92
2019-02-15T15:28:57.749Z,30.58
2019-02-15T15:31:27.204Z,31.30
2019-02-15T15:33:56.733Z,30.79
2019-02-15T15:36:26.243Z,31.06
2019-02-15T15:38:55.755Z,31.07
2019-02-15T15:41:25.246Z,31.32
2019-02-15T15:43:54.757Z,31.89
2019-02-15T15:46:24.346Z,31.43
2019-02-15T15:48:53.828Z,31.95
2019-02-15T15:51:23.314Z,31.32
2019-02-15T15:53:52.838Z,31.00
2019-02-15T15:56:22.385Z,31.54
2019-02-15T15:58:51.953Z,32.22
2019-02-15T16:01:21.552Z,31.75
2019-02-15T16:03:51.055Z,31.72
2019-02-15T16:06:24.333Z,32.61
2019-02-15T16:08:51.770Z,31.88
2019-02-15T16:11:21.270Z,33.01
2019-02-15T16:13:50.746Z,32.81
2019-02-15T16:16:20.315Z,32.86
2019-02-15T16:18:49.807Z,32.80
2019-02-15T16:21:19.315Z,33.07
2019-02-15T16:23:50.515Z,33.47
2019-02-15T16:26:20.137Z,33.24
2019-02-15T16:28:49.617Z,33.45
2019-02-15T16:31:19.147Z,33.61
2019-02-15T16:33:48.712Z,33.62
2019-02-15T16:36:18.245Z,33.40
2019-02-15T16:38:47.730Z,34.65
2019-02-15T16:41:18.876Z,34.48
2019-02-15T16:43:48.375Z,34.95
2019-02-15T16:46:17.846Z,35.10
2019-02-15T16:48:47.372Z,34.68
2019-02-15T16:51:16.962Z,35.44
2019-02-15T16:53:46.471Z,35.09
2019-02-15T16:56:15.986Z,34.91
2019-02-15T16:58:45.473Z,35.71
2019-02-15T17:01:14.994Z,35.93
2019-02-15T17:03:44.486Z,36.20
2019-02-15T17:06:13.979Z,34.89
2019-02-15T17:08:43.495Z,36.04
2019-02-15T17:11:13.140Z,35.53
2019-02-15T17:13:42.650Z,35.52
2019-02-15T17:16:12.126Z,35.02
2019-02-15T17:18:41.618Z,36.64
2019-02-15T17:21:11.121Z,35.58
2019-02-15T17:23:40.631Z,35.94
2019-02-15T17:26:11.746Z,36.37
2019-02-15T17:28:41.250Z,37.03
2019-02-15T17:31:10.757Z,36.36
2019-02-15T17:33:40.251Z,36.70
2019-02-15T17:36:09.775Z,37.21
2019-02-15T17:38:39.318Z,36.99
2019-02-15T17:41:08.802Z,36.61
2019-02-15T17:43:38.325Z,37.09
2019-02-15T17:46:07.884Z,37.32
2019-02-15T17:48:37.389Z,37.44
2019-02-15T17:51:06.975Z,37.57
2019-02-15T17:53:36.493Z,37.24
2019-02-15T17:56:06.137Z,37.39
2019-02-15T17:58:35.663Z,38.24
2019-02-15T18:01:05.352Z,38.40
2019-02-15T18:03:34.871Z,37.99
2019-02-15T18:06:04.419Z,38.80
2019-02-15T18:08:33.993Z,38.22
2019-02-15T18:11:03.552Z,38.44
2019-02-15T18:13:33.059Z,38.57
2019-02-15T18:16:02.614Z,39.15
2019-02-15T18:18:32.234Z,38.07
2019-02-15T18:21:01.804Z,38.00
2019-02-15T18:23:31.351Z,38.81
2019-02-15T18:26:00.981Z,38.70
2019-02-15T18:28:30.555Z,38.76
2019-02-15T18:31:00.114Z,39.08
2019-02-15T18:33:29.660Z,38.80
2019-02-15T18:35:59.355Z,39.39
2019-02-15T18:38:28.871Z,39.45
2019-02-15T18:40:58.396Z,39.09
2019-02-15T18:43:27.888Z,39.59
2019-02-15T18:45:57.477Z,39.54
2019-02-15T18:48:27.009Z,39.69
2019-02-15T18:50:56.579Z,39.44
2019-02-15T18:53:26.083Z,39.81
2019-02-15T18:55:55.565Z,39.81
2019-02-15T18:58:25.090Z,39.49
2019-02-15T19:00:54.639Z,39.40
2019-02-15T19:03:25.945Z,40.11
2019-02-15T19:05:55.423Z,39.83
2019-02-15T19:08:25.008Z,39.68
2019-02-15T19:10:54.609Z,39.63
2019-02-15T19:13:24.074Z,39.75
2019-02-15T19:15:53.632Z,40.14
2019-02-15T19:18:23.226Z,39.95
2019-02-15T19:20:52.795Z,40.34
2019-02-15T19:23:22.390Z,40.04
2019-02-15T19:25:51.947Z,39.97
2019-02-15T19:28:21.509Z,41.27
2019-02-15T19:30:51.028Z,40.41
2019-02-15T19:33:20.698Z,40.61
2019-02-15T19:35:50.206Z,41.04
2019-02-15T19:38:19.759Z,41.08
2019-02-15T19:40:49.304Z,41.09
2019-02-15T19:43:18.829Z,40.66
2019-02-15T19:45:50.414Z,41.63
2019-02-15T19:48:19.928Z,41.43
2019-02-15T19:50:49.434Z,41.52
2019-02-15T19:53:18.944Z,41.72
2019-02-15T19:55:48.474Z,41.23
2019-02-15T19:58:17.999Z,41.91
2019-02-15T20:00:47.561Z,42.22
2019-02-15T20:03:17.127Z,42.24
2019-02-15T20:05:46.713Z,41.79
2019-02-15T20:08:17.804Z,42.61
2019-02-15T20:10:48.916Z,42.90
2019-02-15T20:13:18.425Z,42.58
2019-02-15T20:15:48.082Z,42.92
2019-02-15T20:18:17.589Z,42.82
2019-02-15T20:20:47.145Z,43.43
2019-02-15T20:23:16.646Z,43.40
2019-02-15T20:25:46.142Z,43.90
2019-02-15T20:28:15.660Z,44.33
2019-02-15T20:30:45.137Z,44.27
2019-02-15T20:33:14.671Z,44.19
2019-02-15T20:35:44.317Z,44.82
2019-02-15T20:38:13.897Z,44.89
2019-02-15T20:40:43.400Z,46.21
2019-02-15T20:43:12.953Z,45.39
2019-02-15T20:45:42.498Z,46.29
2019-02-15T20:48:13.042Z,45.57
2019-02-15T20:50:42.955Z,45.36
2019-02-15T20:53:12.480Z,45.58
2019-02-15T20:55:42.004Z,45.61
2019-02-15T20:58:11.519Z,45.81
2019-02-15T21:00:41.030Z,45.92
2019-02-15T21:03:10.535Z,45.98
2019-02-15T21:05:40.081Z,45.86
2019-02-15T21:08:28.982Z,45.68
2019-02-15T21:11:17.936Z,45.81
2019-02-15T21:14:06.749Z,45.95
2019-02-15T21:16:48.092Z,45.85
2019-02-15T21:19:37.008Z,45.51
2019-02-15T21:22:25.911Z,45.67
2019-02-15T21:25:35.703Z,45.32
2019-02-15T21:28:24.631Z,45.11
2019-02-15T21:31:13.496Z,45.20
2019-02-15T21:34:02.410Z,45.05
2019-02-15T21:36:34.001Z,44.95
2019-02-15T21:39:04.337Z,45.05
2019-02-15T21:41:33.825Z,44.62
2019-02-15T21:44:03.408Z,45.01
2019-02-15T21:46:33.071Z,44.86
2019-02-15T21:49:02.667Z,45.22
2019-02-15T21:51:32.291Z,45.24
2019-02-15T21:54:01.848Z,45.00
2019-02-15T21:56:31.456Z,44.99
2019-02-15T21:59:01.023Z,45.14
2019-02-15T22:01:30.556Z,44.99
2019-02-15T22:04:00.032Z,45.09
2019-02-15T22:06:29.549Z,45.28
2019-02-15T22:08:59.054Z,45.25
2019-02-15T22:11:28.565Z,45.04
2019-02-15T22:13:58.086Z,45.09
2019-02-15T22:16:27.622Z,45.27
2019-02-15T22:18:57.073Z,45.37
2019-02-15T22:21:26.604Z,45.23
2019-02-15T22:23:56.065Z,45.13
2019-02-15T22:26:25.587Z,45.53
2019-02-15T22:28:55.049Z,45.31
2019-02-15T22:31:24.592Z,45.56
2019-02-15T22:33:55.723Z,45.64
2019-02-15T22:36:25.281Z,45.83
2019-02-15T22:38:54.817Z,45.67
2019-02-15T22:41:24.301Z,45.73
2019-02-15T22:43:53.811Z,45.89
2019-02-15T22:46:23.297Z,46.02
2019-02-15T22:48:52.813Z,45.91
2019-02-15T22:51:22.351Z,46.04
2019-02-15T22:53:51.827Z,45.79
2019-02-15T22:56:21.327Z,45.87
2019-02-15T22:58:50.882Z,45.95
2019-02-15T23:01:21.058Z,46.05
2019-02-15T23:03:50.597Z,46.50
2019-02-15T23:06:20.107Z,46.54
2019-02-15T23:08:49.623Z,46.23
2019-02-15T23:11:19.244Z,46.28
2019-02-15T23:13:48.757Z,46.54
2019-02-15T23:16:18.361Z,46.26
2019-02-15T23:18:47.851Z,46.73
2019-02-15T23:21:17.375Z,46.77
2019-02-15T23:23:46.892Z,46.78
2019-02-15T23:26:16.429Z,46.69
2019-02-15T23:28:46.013Z,46.65
2019-02-15T23:31:15.547Z,46.34
2019-02-15T23:33:45.004Z,46.70
2019-02-15T23:36:16.970Z,46.82
2019-02-15T23:38:46.463Z,46.65
2019-02-15T23:41:15.981Z,47.04
2019-02-15T23:43:45.443Z,46.70
2019-02-15T23:46:14.932Z,46.54
2019-02-15T23:48:44.454Z,46.74
2019-02-15T23:51:13.932Z,46.99
2019-02-15T23:53:43.404Z,47.00
2019-02-15T23:56:12.910Z,46.79
2019-02-15T23:58:42.487Z,47.08
